createdAt,value
2019-05-21T00:01:00.238Z,16.40
2019-05-21T00:03:27.570Z,16.00
2019-05-21T00:05:54.887Z,15.80
2019-05-21T00:08:22.235Z,15.70
2019-05-21T00:10:49.552Z,15.80
2019-05-21T00:13:16.845Z,15.70
2019-05-21T00:15:44.206Z,15.60
2019-05-21T00:18:11.542Z,15.40
2019-05-21T00:20:38.955Z,15.40
2019-05-21T00:23:06.292Z,15.20
2019-05-21T00:25:33.721Z,15.00
2019-05-21T00:28:38.571Z,15.00
2019-05-21T00:31:42.579Z,15.20
2019-05-21T00:34:46.758Z,15.30
2019-05-21T00:37:50.580Z,15.50
2019-05-21T00:40:54.347Z,15.50
2019-05-21T00:43:36.180Z,15.40
2019-05-21T00:46:03.526Z,15.40
2019-05-21T00:48:30.946Z,15.30
2019-05-21T00:50:58.268Z,15.40
2019-05-21T00:53:25.690Z,15.40
2019-05-21T00:55:53.106Z,15.50
2019-05-21T00:58:20.459Z,15.60
2019-05-21T01:00:47.867Z,15.50
2019-05-21T01:03:15.251Z,15.60
2019-05-21T01:05:42.679Z,15.50
2019-05-21T01:08:09.978Z,15.50
2019-05-21T01:10:37.335Z,15.60
2019-05-21T01:13:04.689Z,15.60
2019-05-21T01:15:32.023Z,15.50
2019-05-21T01:17:59.349Z,15.60
2019-05-21T01:20:26.668Z,15.50
2019-05-21T01:22:54.059Z,15.20
2019-05-21T01:25:21.391Z,15.30
2019-05-21T01:27:48.673Z,15.30
2019-05-21T01:30:16.011Z,14.90
2019-05-21T01:32:43.305Z,14.80
2019-05-21T01:35:17.177Z,15.00
2019-05-21T01:37:39.845Z,15.20
2019-05-21T01:40:07.252Z,15.30
2019-05-21T01:42:34.589Z,15.20
2019-05-21T01:45:02.172Z,15.30
2019-05-21T01:47:29.778Z,15.40
2019-05-21T01:49:57.115Z,15.40
2019-05-21T01:52:24.430Z,15.40
2019-05-21T01:54:51.741Z,15.30
2019-05-21T01:57:19.041Z,15.00
2019-05-21T01:59:46.387Z,15.00
2019-05-21T02:02:13.728Z,15.10
2019-05-21T02:04:41.049Z,15.20
2019-05-21T02:07:08.394Z,15.30
2019-05-21T02:09:55.195Z,15.40
2019-05-21T02:12:22.531Z,15.20
2019-05-21T02:14:49.815Z,15.20
2019-05-21T02:17:17.169Z,15.20
2019-05-21T02:19:44.470Z,14.90
2019-05-21T02:22:11.802Z,14.80
2019-05-21T02:24:39.111Z,14.80
2019-05-21T02:27:06.451Z,15.00
2019-05-21T02:29:33.747Z,15.20
2019-05-21T02:32:01.109Z,15.20
2019-05-21T02:34:28.488Z,15.20
2019-05-21T02:36:55.817Z,15.20
2019-05-21T02:39:23.215Z,15.30
2019-05-21T02:41:50.557Z,15.50
2019-05-21T02:44:17.892Z,15.50
2019-05-21T02:46:45.244Z,15.40
2019-05-21T02:49:12.650Z,15.40
2019-05-21T02:51:39.981Z,15.50
2019-05-21T02:54:07.290Z,15.50
2019-05-21T02:56:34.634Z,15.40
2019-05-21T02:59:01.954Z,15.20
2019-05-21T03:01:44.636Z,15.00
2019-05-21T03:04:11.971Z,15.20
2019-05-21T03:06:39.357Z,14.80
2019-05-21T03:09:06.805Z,14.80
2019-05-21T03:11:34.134Z,14.70
2019-05-21T03:14:01.570Z,14.80
2019-05-21T03:16:28.874Z,14.80
2019-05-21T03:18:56.174Z,15.00
2019-05-21T03:21:23.500Z,15.00
2019-05-21T03:23:50.890Z,14.90
2019-05-21T03:26:18.210Z,14.70
2019-05-21T03:28:45.591Z,14.90
2019-05-21T03:31:12.984Z,15.00
2019-05-21T03:33:40.356Z,14.80
2019-05-21T03:36:07.813Z,14.70
2019-05-21T03:38:35.239Z,14.70
2019-05-21T03:41:02.576Z,14.70
2019-05-21T03:43:29.879Z,14.80
2019-05-21T03:45:57.215Z,14.70
2019-05-21T03:48:24.568Z,14.60
2019-05-21T03:50:51.994Z,14.50
2019-05-21T03:53:19.284Z,14.50
2019-05-21T03:55:46.626Z,14.50
2019-05-21T03:58:13.990Z,14.70
2019-05-21T04:00:41.286Z,14.80
2019-05-21T04:03:08.742Z,14.60
2019-05-21T04:05:36.043Z,14.40
2019-05-21T04:08:03.398Z,14.50
2019-05-21T04:10:30.714Z,14.60
2019-05-21T04:13:10.372Z,14.60
2019-05-21T04:16:00.026Z,14.70
2019-05-21T04:18:38.148Z,14.60
2019-05-21T04:21:05.470Z,14.60
2019-05-21T04:23:32.892Z,14.60
2019-05-21T04:26:00.238Z,14.40
2019-05-21T04:28:27.563Z,14.30
2019-05-21T04:30:55.000Z,14.20
2019-05-21T04:33:22.456Z,14.30
2019-05-21T04:35:49.897Z,14.30
2019-05-21T04:38:17.213Z,14.30
2019-05-21T04:40:44.534Z,14.30
2019-05-21T04:43:11.861Z,14.40
2019-05-21T04:45:39.188Z,14.50
2019-05-21T04:48:06.593Z,14.50
2019-05-21T04:50:34.028Z,14.60
2019-05-21T04:53:01.381Z,14.60
2019-05-21T04:55:28.786Z,14.60
2019-05-21T04:57:56.161Z,14.50
2019-05-21T05:00:23.558Z,14.50
2019-05-21T05:02:50.991Z,14.50
2019-05-21T05:05:18.334Z,14.60
2019-05-21T05:07:45.737Z,14.30
2019-05-21T05:10:13.379Z,14.20
2019-05-21T05:12:40.786Z,14.40
2019-05-21T05:15:08.102Z,14.20
2019-05-21T05:17:35.463Z,14.30
2019-05-21T05:20:03.013Z,14.30
2019-05-21T05:22:30.380Z,14.40
2019-05-21T05:24:57.704Z,14.30
2019-05-21T05:27:25.032Z,14.20
2019-05-21T05:29:52.360Z,14.20
2019-05-21T05:32:19.680Z,14.20
2019-05-21T05:34:47.132Z,14.20
2019-05-21T05:37:14.443Z,14.30
2019-05-21T05:39:41.809Z,14.20
2019-05-21T05:42:09.155Z,14.20
2019-05-21T05:44:37.141Z,14.20
2019-05-21T05:47:04.526Z,14.30
2019-05-21T05:49:36.936Z,14.50
2019-05-21T05:52:04.291Z,14.50
2019-05-21T05:54:31.613Z,14.50
2019-05-21T05:56:59.089Z,14.50
2019-05-21T05:59:26.566Z,14.50
2019-05-21T06:01:53.986Z,14.50
2019-05-21T06:04:21.419Z,14.50
2019-05-21T06:06:48.716Z,14.50
2019-05-21T06:09:16.056Z,14.60
2019-05-21T06:11:43.582Z,14.60
2019-05-21T06:14:10.968Z,14.70
2019-05-21T06:16:41.129Z,14.70
2019-05-21T06:19:08.406Z,14.70
2019-05-21T06:21:35.872Z,14.70
2019-05-21T06:24:03.276Z,14.70
2019-05-21T06:26:30.630Z,14.70
2019-05-21T06:28:57.949Z,14.60
2019-05-21T06:31:25.351Z,14.70
2019-05-21T06:33:52.758Z,14.70
2019-05-21T06:36:20.135Z,14.60
2019-05-21T06:38:47.540Z,14.70
2019-05-21T06:41:15.128Z,14.80
2019-05-21T06:43:42.613Z,14.80
2019-05-21T06:46:09.893Z,14.70
2019-05-21T06:48:37.252Z,14.70
2019-05-21T06:51:04.582Z,14.60
2019-05-21T06:53:31.958Z,14.60
2019-05-21T06:55:59.245Z,14.70
2019-05-21T06:58:26.646Z,14.80
2019-05-21T07:00:53.977Z,14.90
2019-05-21T07:03:21.317Z,14.80
2019-05-21T07:05:58.262Z,14.80
2019-05-21T07:08:33.532Z,14.90
2019-05-21T07:10:47.158Z,14.90
2019-05-21T07:13:14.577Z,14.90
2019-05-21T07:15:41.936Z,14.80
2019-05-21T07:18:09.265Z,14.40
2019-05-21T07:20:36.715Z,14.50
2019-05-21T07:23:04.160Z,14.60
2019-05-21T07:25:31.694Z,14.80
2019-05-21T07:27:59.160Z,14.80
2019-05-21T07:30:26.487Z,14.70
2019-05-21T07:32:53.988Z,14.60
2019-05-21T07:35:21.362Z,14.40
2019-05-21T07:37:48.767Z,14.40
2019-05-21T07:40:16.184Z,14.30
2019-05-21T07:42:43.581Z,14.30
2019-05-21T07:45:11.250Z,14.50
2019-05-21T07:47:38.533Z,14.60
2019-05-21T07:50:06.439Z,14.70
2019-05-21T07:52:33.779Z,14.70
2019-05-21T07:55:01.114Z,14.60
2019-05-21T07:57:28.457Z,14.50
2019-05-21T07:59:55.901Z,14.50
2019-05-21T08:02:23.267Z,14.60
2019-05-21T08:04:50.643Z,14.40
2019-05-21T08:07:17.958Z,14.60
2019-05-21T08:09:45.395Z,14.50
2019-05-21T08:12:35.359Z,14.60
2019-05-21T08:14:41.964Z,14.50
2019-05-21T08:17:09.328Z,14.50
2019-05-21T08:19:36.683Z,14.60
2019-05-21T08:22:04.021Z,14.70
2019-05-21T08:24:31.365Z,14.70
2019-05-21T08:27:01.164Z,14.60
2019-05-21T08:29:28.597Z,14.50
2019-05-21T08:31:56.013Z,14.70
2019-05-21T08:34:23.327Z,14.80
2019-05-21T08:36:50.729Z,14.80
2019-05-21T08:39:28.240Z,14.50
2019-05-21T08:41:47.379Z,14.50
2019-05-21T08:44:14.732Z,14.50
2019-05-21T08:46:42.142Z,14.40
2019-05-21T08:49:09.492Z,14.60
2019-05-21T08:51:38.608Z,14.70
2019-05-21T08:54:05.960Z,14.60
2019-05-21T08:56:33.310Z,14.60
2019-05-21T08:59:00.641Z,14.70
2019-05-21T09:01:27.992Z,14.60
2019-05-21T09:03:55.403Z,14.50
2019-05-21T09:06:22.844Z,14.50
2019-05-21T09:08:50.191Z,14.20
2019-05-21T09:11:17.526Z,14.10
2019-05-21T09:13:44.863Z,14.30
2019-05-21T09:16:12.206Z,14.60
2019-05-21T09:18:39.561Z,14.60
2019-05-21T09:21:06.919Z,14.50
2019-05-21T09:23:34.262Z,14.50
2019-05-21T09:26:01.574Z,14.60
2019-05-21T09:28:28.918Z,14.70
2019-05-21T09:30:56.211Z,14.50
2019-05-21T09:33:23.590Z,14.30
2019-05-21T09:35:50.894Z,14.60
2019-05-21T09:38:18.339Z,14.80
2019-05-21T09:40:45.774Z,14.80
2019-05-21T09:43:13.068Z,15.00
2019-05-21T09:45:40.438Z,14.90
2019-05-21T09:48:07.956Z,14.90
2019-05-21T09:50:35.299Z,15.10
2019-05-21T09:53:02.630Z,15.30
2019-05-21T09:55:33.452Z,15.40
2019-05-21T10:01:16.209Z,15.60
2019-05-21T10:03:47.296Z,15.70
2019-05-21T10:06:14.693Z,15.60
2019-05-21T10:08:42.097Z,15.60
2019-05-21T10:11:09.528Z,15.70
2019-05-21T10:13:36.837Z,15.50
2019-05-21T10:16:04.204Z,15.70
2019-05-21T10:18:31.507Z,15.90
2019-05-21T10:20:58.842Z,16.00
2019-05-21T10:23:26.190Z,15.90
2019-05-21T10:25:53.507Z,15.80
2019-05-21T10:28:20.847Z,16.00
2019-05-21T10:30:48.159Z,15.70
2019-05-21T10:33:15.573Z,15.90
2019-05-21T10:35:42.909Z,16.00
2019-05-21T10:38:10.230Z,15.90
2019-05-21T10:40:37.671Z,15.80
2019-05-21T10:43:05.026Z,15.80
2019-05-21T10:45:32.343Z,15.80
2019-05-21T10:47:59.760Z,16.10
2019-05-21T10:50:27.117Z,16.10
2019-05-21T10:52:54.449Z,16.20
2019-05-21T10:55:21.809Z,16.00
2019-05-21T10:57:49.216Z,16.30
2019-05-21T11:00:22.665Z,16.10
2019-05-21T11:02:56.554Z,16.00
2019-05-21T11:05:30.471Z,16.10
2019-05-21T11:08:20.743Z,16.10
2019-05-21T11:10:27.159Z,16.30
2019-05-21T11:12:54.485Z,16.30
2019-05-21T11:15:22.207Z,16.00
2019-05-21T11:18:07.346Z,16.10
2019-05-21T11:20:18.845Z,16.30
2019-05-21T11:22:46.252Z,16.40
2019-05-21T11:25:13.611Z,16.30
2019-05-21T11:27:41.038Z,16.20
2019-05-21T11:30:08.679Z,16.30
2019-05-21T11:32:36.108Z,16.30
2019-05-21T11:35:04.189Z,16.40
2019-05-21T11:37:31.534Z,16.40
2019-05-21T11:39:58.834Z,16.10
2019-05-21T11:42:26.201Z,16.00
2019-05-21T11:44:53.506Z,16.20
2019-05-21T11:47:22.309Z,16.20
2019-05-21T11:49:49.661Z,16.30
2019-05-21T11:52:17.081Z,16.30
2019-05-21T11:54:44.519Z,16.30
2019-05-21T11:57:11.840Z,16.20
2019-05-21T11:59:39.211Z,16.30
2019-05-21T12:02:08.585Z,16.30
2019-05-21T12:04:35.949Z,16.20
2019-05-21T12:07:03.846Z,16.30
2019-05-21T12:09:31.429Z,16.40
2019-05-21T12:11:58.850Z,16.40
2019-05-21T12:14:26.296Z,16.20
2019-05-21T12:16:53.596Z,16.30
2019-05-21T12:19:20.986Z,16.20
2019-05-21T12:21:48.393Z,16.40
2019-05-21T12:24:15.696Z,16.60
2019-05-21T12:26:43.414Z,16.40
2019-05-21T12:29:10.902Z,16.30
2019-05-21T12:31:38.245Z,16.40
2019-05-21T12:34:05.757Z,16.40
2019-05-21T12:36:33.147Z,16.50
2019-05-21T12:39:13.735Z,16.40
2019-05-21T12:41:29.748Z,16.20
2019-05-21T12:43:57.107Z,16.10
2019-05-21T12:46:24.549Z,16.20
2019-05-21T12:48:51.982Z,16.20
2019-05-21T12:51:19.321Z,16.30
2019-05-21T12:53:46.651Z,16.40
2019-05-21T12:56:13.968Z,16.30
2019-05-21T12:58:41.343Z,16.40
2019-05-21T13:01:08.695Z,16.30
2019-05-21T13:03:36.049Z,16.40
2019-05-21T13:06:03.460Z,16.10
2019-05-21T13:08:30.845Z,15.90
2019-05-21T13:10:58.209Z,16.10
2019-05-21T13:13:25.534Z,16.10
2019-05-21T13:15:52.923Z,16.10
2019-05-21T13:18:20.269Z,16.20
2019-05-21T13:20:47.624Z,16.10
2019-05-21T13:23:14.960Z,15.70
2019-05-21T13:25:42.671Z,15.70
2019-05-21T13:28:10.112Z,15.80
2019-05-21T13:30:37.453Z,16.00
2019-05-21T13:33:04.918Z,16.20
2019-05-21T13:35:32.608Z,16.30
2019-05-21T13:38:02.021Z,16.20
2019-05-21T13:40:30.841Z,16.10
2019-05-21T13:42:58.576Z,16.10
2019-05-21T13:45:27.406Z,16.10
2019-05-21T13:47:54.863Z,16.20
2019-05-21T13:50:22.198Z,16.10
2019-05-21T13:52:49.459Z,16.10
2019-05-21T13:55:16.807Z,16.10
2019-05-21T13:57:44.122Z,16.10
2019-05-21T14:00:16.629Z,15.80
2019-05-21T14:02:44.198Z,15.70
2019-05-21T14:05:11.921Z,15.70
2019-05-21T14:07:39.499Z,15.80
2019-05-21T14:10:19.397Z,15.50
2019-05-21T14:12:36.598Z,15.60
2019-05-21T14:15:04.739Z,15.70
2019-05-21T14:17:32.152Z,15.60
2019-05-21T14:19:59.501Z,15.60
2019-05-21T14:22:26.864Z,15.70
2019-05-21T14:24:54.209Z,15.70
2019-05-21T14:27:21.669Z,15.30
2019-05-21T14:29:48.979Z,15.30
2019-05-21T14:32:16.362Z,15.10
2019-05-21T14:34:58.686Z,15.20
2019-05-21T14:37:12.950Z,15.40
2019-05-21T14:39:40.334Z,15.50
2019-05-21T14:42:07.670Z,15.50
2019-05-21T14:44:34.992Z,15.40
2019-05-21T14:47:02.444Z,15.50
2019-05-21T14:49:29.766Z,15.40
2019-05-21T14:51:57.199Z,15.20
2019-05-21T14:54:26.959Z,15.10
2019-05-21T14:56:53.918Z,15.20
2019-05-21T14:59:21.352Z,15.40
2019-05-21T15:01:48.742Z,15.50
2019-05-21T15:04:16.124Z,15.60
2019-05-21T15:06:43.643Z,15.60
2019-05-21T15:09:11.097Z,15.40
2019-05-21T15:11:38.550Z,15.50
2019-05-21T15:14:06.004Z,15.40
2019-05-21T15:16:33.484Z,15.30
2019-05-21T15:19:00.838Z,15.20
2019-05-21T15:21:32.559Z,15.30
2019-05-21T15:23:59.958Z,15.30
2019-05-21T15:26:27.545Z,15.30
2019-05-21T15:28:54.980Z,15.40
2019-05-21T15:31:22.747Z,15.50
2019-05-21T15:33:50.362Z,15.50
2019-05-21T15:36:17.704Z,15.40
2019-05-21T15:38:50.621Z,15.20
2019-05-21T15:41:16.528Z,15.20
2019-05-21T15:43:43.954Z,15.20
2019-05-21T15:46:11.289Z,15.10
2019-05-21T15:48:38.649Z,14.90
2019-05-21T15:51:06.060Z,14.90
2019-05-21T15:53:33.516Z,14.90
2019-05-21T15:56:00.855Z,15.10
2019-05-21T15:58:28.305Z,15.20
2019-05-21T16:00:55.751Z,15.20
2019-05-21T16:03:23.081Z,15.00
2019-05-21T16:05:50.546Z,14.90
2019-05-21T16:08:17.860Z,15.00
2019-05-21T16:10:45.215Z,14.80
2019-05-21T16:13:12.666Z,14.90
2019-05-21T16:15:40.095Z,15.00
2019-05-21T16:18:07.530Z,15.10
2019-05-21T16:20:35.045Z,15.20
2019-05-21T16:23:02.521Z,15.10
2019-05-21T16:25:30.175Z,15.20
2019-05-21T16:27:57.520Z,15.00
2019-05-21T16:30:24.841Z,15.00
2019-05-21T16:32:52.176Z,14.60
2019-05-21T16:35:19.474Z,14.60
2019-05-21T16:37:46.805Z,14.70
2019-05-21T16:40:14.424Z,14.70
2019-05-21T16:42:41.887Z,14.90
2019-05-21T16:45:09.748Z,15.00
2019-05-21T16:47:45.670Z,14.90
2019-05-21T16:50:09.169Z,14.90
2019-05-21T16:52:37.462Z,14.90
2019-05-21T16:55:05.449Z,14.70
2019-05-21T16:57:32.775Z,14.90
2019-05-21T17:00:00.251Z,15.00
2019-05-21T17:02:27.778Z,15.00
2019-05-21T17:04:55.117Z,15.20
2019-05-21T17:07:22.562Z,15.20
2019-05-21T17:09:49.924Z,15.20
2019-05-21T17:12:17.272Z,15.20
2019-05-21T17:14:44.629Z,15.20
2019-05-21T17:17:12.011Z,15.20
2019-05-21T17:19:39.436Z,15.30
2019-05-21T17:22:06.996Z,15.30
2019-05-21T17:24:34.333Z,15.40
2019-05-21T17:27:01.654Z,15.40
2019-05-21T17:29:29.019Z,15.50
2019-05-21T17:31:56.515Z,15.30
2019-05-21T17:34:23.825Z,15.40
2019-05-21T17:36:51.189Z,15.40
2019-05-21T17:39:18.655Z,15.40
2019-05-21T17:41:45.989Z,15.30
2019-05-21T17:44:13.303Z,15.30
2019-05-21T17:46:40.701Z,15.10
2019-05-21T17:49:08.097Z,15.30
2019-05-21T17:51:35.470Z,15.20
2019-05-21T17:54:02.980Z,15.30
2019-05-21T17:56:30.408Z,15.20
2019-05-21T17:58:57.776Z,15.20
2019-05-21T18:01:25.721Z,15.30
2019-05-21T18:03:53.078Z,15.30
2019-05-21T18:06:20.710Z,15.30
2019-05-21T18:08:48.565Z,15.30
2019-05-21T18:11:16.713Z,15.50
2019-05-21T18:13:47.764Z,15.40
2019-05-21T18:16:13.888Z,15.20
2019-05-21T18:18:41.227Z,15.20
2019-05-21T18:21:08.700Z,15.30
2019-05-21T18:23:36.263Z,15.20
2019-05-21T18:26:04.213Z,14.90
2019-05-21T18:28:32.532Z,14.80
2019-05-21T18:31:00.153Z,14.90
2019-05-21T18:33:27.490Z,15.00
2019-05-21T18:35:54.835Z,15.00
2019-05-21T18:38:22.154Z,14.90
2019-05-21T18:40:49.514Z,15.00
2019-05-21T18:43:17.066Z,15.00
2019-05-21T18:45:44.382Z,15.00
2019-05-21T18:48:11.763Z,15.10
2019-05-21T18:50:39.110Z,15.30
2019-05-21T18:53:06.579Z,15.30
2019-05-21T18:55:33.923Z,15.20
2019-05-21T18:58:01.350Z,15.20
2019-05-21T19:00:29.091Z,15.20
2019-05-21T19:02:56.525Z,15.00
2019-05-21T19:05:23.886Z,15.10
2019-05-21T19:07:51.257Z,15.10
2019-05-21T19:10:18.710Z,15.10
2019-05-21T19:12:46.047Z,15.20
2019-05-21T19:15:13.609Z,15.20
2019-05-21T19:17:41.018Z,15.30
2019-05-21T19:20:08.774Z,15.40
2019-05-21T19:22:36.114Z,15.40
2019-05-21T19:25:04.384Z,15.20
2019-05-21T19:27:32.042Z,15.30
2019-05-21T19:29:59.378Z,15.00
2019-05-21T19:32:26.872Z,15.00
2019-05-21T19:34:54.336Z,15.00
2019-05-21T19:37:21.795Z,14.90
2019-05-21T19:39:49.176Z,14.90
2019-05-21T19:42:16.511Z,14.80
2019-05-21T19:44:43.960Z,14.90
2019-05-21T19:47:11.314Z,14.90
2019-05-21T19:49:38.643Z,14.60
2019-05-21T19:52:06.028Z,14.60
2019-05-21T19:54:33.375Z,14.70
2019-05-21T19:57:00.760Z,14.60
2019-05-21T19:59:28.074Z,14.70
2019-05-21T20:01:56.350Z,14.90
2019-05-21T20:04:25.147Z,15.10
2019-05-21T20:06:52.957Z,15.00
2019-05-21T20:09:26.630Z,15.10
2019-05-21T20:11:52.489Z,15.10
2019-05-21T20:14:20.137Z,15.10
2019-05-21T20:16:48.185Z,15.00
2019-05-21T20:19:18.847Z,15.00
2019-05-21T20:21:47.780Z,15.00
2019-05-21T20:24:15.622Z,14.90
2019-05-21T20:26:43.202Z,14.80
2019-05-21T20:29:10.613Z,14.70
2019-05-21T20:31:39.209Z,14.90
2019-05-21T20:34:07.169Z,15.10
2019-05-21T20:36:34.685Z,14.90
2019-05-21T20:39:02.145Z,15.00
2019-05-21T20:41:29.683Z,15.00
2019-05-21T20:43:59.326Z,15.10
2019-05-21T20:46:27.803Z,15.00
2019-05-21T20:48:55.147Z,15.00
2019-05-21T20:51:23.506Z,15.10
2019-05-21T20:53:50.953Z,15.10
2019-05-21T20:56:18.505Z,15.10
2019-05-21T20:58:45.894Z,15.10
2019-05-21T21:01:13.462Z,15.00
2019-05-21T21:03:40.886Z,15.10
2019-05-21T21:06:08.943Z,14.80
2019-05-21T21:08:36.925Z,14.90
2019-05-21T21:11:06.145Z,14.80
2019-05-21T21:13:33.890Z,14.80
2019-05-21T21:16:02.100Z,14.70
2019-05-21T21:18:30.098Z,14.70
2019-05-21T21:20:57.780Z,14.90
2019-05-21T21:23:26.389Z,14.70
2019-05-21T21:25:53.806Z,14.70
2019-05-21T21:28:21.663Z,14.80
2019-05-21T21:30:49.577Z,15.00
2019-05-21T21:33:17.007Z,15.10
2019-05-21T21:35:44.626Z,15.10
2019-05-21T21:38:14.313Z,15.20
2019-05-21T21:40:41.734Z,15.20
2019-05-21T21:43:09.387Z,15.20
2019-05-21T21:45:37.249Z,15.20
2019-05-21T21:48:04.902Z,15.20
2019-05-21T21:50:33.056Z,15.30
2019-05-21T21:53:00.576Z,15.30
2019-05-21T21:55:31.679Z,15.30
2019-05-21T21:57:57.559Z,15.20
2019-05-21T22:01:00.275Z,15.00
2019-05-21T22:03:30.288Z,14.80
2019-05-21T22:05:59.125Z,14.90
2019-05-21T22:08:27.881Z,14.90
2019-05-21T22:10:55.783Z,15.00
2019-05-21T22:13:24.249Z,15.00
2019-05-21T22:15:52.103Z,14.90
2019-05-21T22:18:20.047Z,14.80
2019-05-21T22:20:47.476Z,15.00
2019-05-21T22:23:15.408Z,15.00
2019-05-21T22:25:42.824Z,14.90
2019-05-21T22:28:10.148Z,14.90
2019-05-21T22:30:38.116Z,15.00
2019-05-21T22:33:05.590Z,15.10
2019-05-21T22:35:33.096Z,14.90
2019-05-21T22:38:00.420Z,14.90
2019-05-21T22:40:27.740Z,14.60
2019-05-21T22:42:55.062Z,14.70
2019-05-21T22:45:22.486Z,14.80
2019-05-21T22:47:49.838Z,14.80
2019-05-21T22:50:17.523Z,14.80
2019-05-21T22:52:44.822Z,15.00
2019-05-21T22:55:12.488Z,15.10
2019-05-21T22:57:39.794Z,15.10
2019-05-21T23:00:08.081Z,15.20
2019-05-21T23:02:37.312Z,15.30
2019-05-21T23:05:05.124Z,15.20
2019-05-21T23:07:32.516Z,15.20
2019-05-21T23:09:59.862Z,15.40
2019-05-21T23:12:27.969Z,15.30
2019-05-21T23:14:55.507Z,15.30
2019-05-21T23:17:23.272Z,15.20
2019-05-21T23:19:50.659Z,15.20
2019-05-21T23:22:19.528Z,14.90
2019-05-21T23:24:47.485Z,14.90
2019-05-21T23:27:14.886Z,15.00
2019-05-21T23:29:42.379Z,15.00
2019-05-21T23:32:11.525Z,14.90
2019-05-21T23:34:39.667Z,15.00
2019-05-21T23:37:10.392Z,15.10
2019-05-21T23:39:39.818Z,15.00
2019-05-21T23:42:08.044Z,15.10
2019-05-21T23:44:35.459Z,15.20
2019-05-21T23:47:04.990Z,15.10
2019-05-21T23:49:32.336Z,15.00
2019-05-21T23:51:59.666Z,15.10
2019-05-21T23:54:26.990Z,14.70
2019-05-21T23:56:54.820Z,14.70
2019-05-21T23:59:23.458Z,14.80
